PWSweather.com
Personal Weather Stations
Station Observations
REUBENS
Camas Prairie, Reubens, ID

Camas PrairieReubens, ID

Lat: 46.35417, Lon: -116.53167

Elevation: 3480

Station Type: Davis VantagePro 2

http://www.theobrienranch.com/wx/wx.htm

High Low Average
Temperature 47.1°F8.4°C 30.6°F-0.8°C 35.1°F1.7°C
Dew Point 31.6°F-0.2°C 26.5°F-3.1°C 28.3°F-2.1°C
Winds 12.6 mph 20.3 kmh Calm Calm 7.0 mph SE11.3 kmh SE
Wind Gusts 16.0 mph25.7 kmh -- 9.0 mph14.5 kmh
Humidity 86% 45% 77%
Pressure 30.53 in1033.9 mb 30.22 in1023.4 mb -
Precipitation 0.00 in0.0 mm - -
Hour Temp Dew Point Humidity Winds Wind Gusts Pressure Precip Precip Rate Daily Precip Total
12:00 AM 33.6°F0.9°C 26.5°F-3.1°C 75% 9.4 mph SE15.1 kmh SE 12.0 mph19.3 kmh 30.53 in1033.9 mb 0.00 in0.0 mm 0.00 in/hr0.0 mm/hr 0.00 in0.0 mm
12:30 AM 31.8°F-0.1°C 26.6°F-3.0°C 81% 7.8 mph E12.6 kmh E 10.0 mph16.1 kmh 30.52 in1033.5 mb 0.00 in0.0 mm 0.00 in/hr0.0 mm/hr 0.00 in0.0 mm
01:00 AM 30.6°F-0.8°C 26.9°F-2.8°C 86% 6.7 mph E10.8 kmh E 7.0 mph11.3 kmh 30.52 in1033.5 mb 0.00 in0.0 mm 0.00 in/hr0.0 mm/hr 0.00 in0.0 mm
01:30 AM 30.9°F-0.6°C 27.2°F-2.7°C 86% 10.4 mph E16.7 kmh E 11.0 mph17.7 kmh 30.52 in1033.5 mb 0.00 in0.0 mm 0.00 in/hr0.0 mm/hr 0.00 in0.0 mm
02:00 AM 31.0°F-0.6°C 27.3°F-2.6°C 86% 10.7 mph ESE17.2 kmh ESE 12.0 mph19.3 kmh 30.52 in1033.5 mb 0.00 in0.0 mm 0.00 in/hr0.0 mm/hr 0.00 in0.0 mm
02:30 AM 31.4°F-0.3°C 27.4°F-2.6°C 85% 9.1 mph ESE14.6 kmh ESE 10.0 mph16.1 kmh 30.52 in1033.5 mb 0.00 in0.0 mm 0.00 in/hr0.0 mm/hr 0.00 in0.0 mm
03:00 AM 31.1°F-0.5°C 26.9°F-2.8°C 84% 6.9 mph SE11.1 kmh SE 9.0 mph14.5 kmh 30.50 in1032.8 mb 0.00 in0.0 mm 0.00 in/hr0.0 mm/hr 0.00 in0.0 mm
03:30 AM 31.7°F-0.2°C 27.4°F-2.6°C 84% 10.9 mph SE17.5 kmh SE 13.0 mph20.9 kmh 30.48 in1032.2 mb 0.00 in0.0 mm 0.00 in/hr0.0 mm/hr 0.00 in0.0 mm
04:00 AM 31.5°F-0.3°C 26.6°F-3.0°C 82% 4.5 mph ESE7.2 kmh ESE 5.0 mph8.0 kmh 30.48 in1032.2 mb 0.00 in0.0 mm 0.00 in/hr0.0 mm/hr 0.00 in0.0 mm
04:30 AM 30.9°F-0.6°C 27.2°F-2.7°C 86% 5.8 mph SE9.3 kmh SE 7.0 mph11.3 kmh 30.47 in1031.8 mb 0.00 in0.0 mm 0.00 in/hr0.0 mm/hr 0.00 in0.0 mm
05:00 AM 30.6°F-0.8°C 26.9°F-2.8°C 86% 5.1 mph SE8.2 kmh SE 6.0 mph9.7 kmh 30.47 in1031.8 mb 0.00 in0.0 mm 0.00 in/hr0.0 mm/hr 0.00 in0.0 mm
05:30 AM 31.2°F-0.4°C 27.2°F-2.7°C 85% 6.1 mph SE9.8 kmh SE 10.0 mph16.1 kmh 30.46 in1031.5 mb 0.00 in0.0 mm 0.00 in/hr0.0 mm/hr 0.00 in0.0 mm
06:00 AM 31.2°F-0.4°C 26.9°F-2.8°C 84% 9.1 mph ESE14.6 kmh ESE 11.0 mph17.7 kmh 30.44 in1030.8 mb 0.00 in0.0 mm 0.00 in/hr0.0 mm/hr 0.00 in0.0 mm
06:30 AM 32.3°F0.2°C 27.7°F-2.4°C 83% 4.4 mph SE7.1 kmh SE 5.0 mph8.0 kmh 30.43 in1030.5 mb 0.00 in0.0 mm 0.00 in/hr0.0 mm/hr 0.00 in0.0 mm
07:00 AM 32.3°F0.2°C 27.7°F-2.4°C 83% 6.3 mph ESE10.1 kmh ESE 8.0 mph12.9 kmh 30.43 in1030.5 mb 0.00 in0.0 mm 0.00 in/hr0.0 mm/hr 0.00 in0.0 mm
07:30 AM 32.8°F0.4°C 28.2°F-2.1°C 83% 12.6 mph SE20.3 kmh SE 16.0 mph25.7 kmh 30.42 in1030.1 mb 0.00 in0.0 mm 0.00 in/hr0.0 mm/hr 0.00 in0.0 mm
08:00 AM 34.7°F1.5°C 28.5°F-1.9°C 78% 9.5 mph SSE15.3 kmh SSE 14.0 mph22.5 kmh 30.41 in1029.8 mb 0.00 in0.0 mm 0.00 in/hr0.0 mm/hr 0.00 in0.0 mm
08:30 AM 34.6°F1.4°C 28.5°F-1.9°C 78% 7.2 mph SSE11.6 kmh SSE 11.0 mph17.7 kmh 30.41 in1029.8 mb 0.00 in0.0 mm 0.00 in/hr0.0 mm/hr 0.00 in0.0 mm
09:00 AM 36.5°F2.5°C 30.3°F-0.9°C 78% 6.7 mph ESE10.8 kmh ESE 9.0 mph14.5 kmh 30.40 in1029.5 mb 0.00 in0.0 mm 0.00 in/hr0.0 mm/hr 0.00 in0.0 mm
09:30 AM 36.4°F2.4°C 30.2°F-1.0°C 78% 9.1 mph E14.6 kmh E 11.0 mph17.7 kmh 30.39 in1029.1 mb 0.00 in0.0 mm 0.00 in/hr0.0 mm/hr 0.00 in0.0 mm
10:00 AM 35.1°F1.7°C 29.9°F-1.2°C 81% 7.0 mph ESE11.3 kmh ESE 10.0 mph16.1 kmh 30.38 in1028.8 mb 0.00 in0.0 mm 0.00 in/hr0.0 mm/hr 0.00 in0.0 mm
10:30 AM 34.5°F1.4°C 29.9°F-1.2°C 83% 6.0 mph ESE9.7 kmh ESE 7.0 mph11.3 kmh 30.36 in1028.1 mb 0.00 in0.0 mm 0.00 in/hr0.0 mm/hr 0.00 in0.0 mm
11:00 AM 35.1°F1.7°C 30.4°F-0.9°C 83% 10.0 mph E16.1 kmh E 13.0 mph20.9 kmh 30.34 in1027.4 mb 0.00 in0.0 mm 0.00 in/hr0.0 mm/hr 0.00 in0.0 mm
11:30 AM 35.3°F1.8°C 30.7°F-0.7°C 83% 6.2 mph ESE10.0 kmh ESE 8.0 mph12.9 kmh 30.32 in1026.8 mb 0.00 in0.0 mm 0.00 in/hr0.0 mm/hr 0.00 in0.0 mm
12:00 PM 36.3°F2.4°C 31.6°F-0.2°C 83% 6.2 mph ESE10.0 kmh ESE 7.0 mph11.3 kmh 30.30 in1026.1 mb 0.00 in0.0 mm 0.00 in/hr0.0 mm/hr 0.00 in0.0 mm
12:30 PM 38.2°F3.4°C 31.0°F-0.6°C 75% 1.4 mph E2.3 kmh E 4.0 mph6.4 kmh 30.30 in1026.1 mb 0.00 in0.0 mm 0.00 in/hr0.0 mm/hr 0.00 in0.0 mm
01:30 PM 47.1°F8.4°C 26.9°F-2.8°C 45% 3.0 mph SSE4.8 kmh SSE 4.0 mph6.4 kmh 30.25 in1024.4 mb 0.00 in0.0 mm 0.00 in/hr0.0 mm/hr 0.00 in0.0 mm
02:00 PM 43.8°F6.6°C 30.0°F-1.1°C 58% 8.0 mph ESE12.9 kmh ESE 9.0 mph14.5 kmh 30.24 in1024.0 mb 0.00 in0.0 mm 0.00 in/hr0.0 mm/hr 0.00 in0.0 mm
02:30 PM 45.1°F7.3°C 30.8°F-0.7°C 57% Calm Calm -- 30.24 in1024.0 mb 0.00 in0.0 mm 0.00 in/hr0.0 mm/hr 0.00 in0.0 mm
03:00 PM 46.7°F8.2°C 27.0°F-2.8°C 46% 7.9 mph SSW12.7 kmh SSW 10.0 mph16.1 kmh 30.22 in1023.4 mb 0.00 in0.0 mm 0.00 in/hr0.0 mm/hr 0.00 in0.0 mm
03:30 PM 44.8°F7.1°C 27.3°F-2.6°C 50% 3.8 mph SSW6.1 kmh SSW 6.0 mph9.7 kmh 30.23 in1023.7 mb 0.00 in0.0 mm 0.00 in/hr0.0 mm/hr 0.00 in0.0 mm
04:00 PM 44.1°F6.7°C 27.1°F-2.7°C 51% 4.8 mph WSW7.7 kmh WSW 7.0 mph11.3 kmh 30.25 in1024.4 mb 0.00 in0.0 mm 0.00 in/hr0.0 mm/hr 0.00 in0.0 mm
04:30 PM 43.9°F6.6°C 27.4°F-2.6°C 52% 2.2 mph W3.5 kmh W 3.0 mph4.8 kmh 30.27 in1025.1 mb 0.00 in0.0 mm 0.00 in/hr0.0 mm/hr 0.00 in0.0 mm
05:00 PM 40.4°F4.7°C 25.5°F-3.6°C 55% 2.3 mph W3.7 kmh W 3.0 mph4.8 kmh 30.29 in1025.7 mb 0.00 in0.0 mm 0.00 in/hr0.0 mm/hr 0.00 in0.0 mm
05:30 PM 40.4°F4.7°C 26.4°F-3.1°C 57% 3.4 mph WSW5.5 kmh WSW 4.0 mph6.4 kmh 30.30 in1026.1 mb 0.00 in0.0 mm 0.00 in/hr0.0 mm/hr 0.00 in0.0 mm
06:00 PM 35.5°F1.9°C 27.3°F-2.6°C 72% 3.5 mph W5.6 kmh W 4.0 mph6.4 kmh 30.32 in1026.8 mb 0.00 in0.0 mm 0.00 in/hr0.0 mm/hr 0.00 in0.0 mm
06:30 PM 31.7°F-0.2°C 27.7°F-2.4°C 85% 3.6 mph NW5.8 kmh NW 5.0 mph8.0 kmh 30.35 in1027.8 mb 0.00 in0.0 mm 0.00 in/hr0.0 mm/hr 0.00 in0.0 mm
07:00 PM 31.7°F-0.2°C 27.1°F-2.7°C 83% Calm Calm -- 30.37 in1028.4 mb 0.00 in0.0 mm 0.00 in/hr0.0 mm/hr 0.00 in0.0 mm
07:30 PM 32.4°F0.2°C 26.0°F-3.3°C 77% 0.1 mph NW0.2 kmh NW 1.0 mph1.6 kmh 30.37 in1028.4 mb 0.00 in0.0 mm 0.00 in/hr0.0 mm/hr 0.00 in0.0 mm
08:00 PM 32.9°F0.5°C 26.5°F-3.1°C 77% 0.7 mph NW1.1 kmh NW 3.0 mph4.8 kmh 30.37 in1028.4 mb 0.00 in0.0 mm 0.00 in/hr0.0 mm/hr 0.00 in0.0 mm
08:30 PM 33.7°F0.9°C 26.6°F-3.0°C 75% 1.6 mph SSW2.6 kmh SSW 2.0 mph3.2 kmh 30.36 in1028.1 mb 0.00 in0.0 mm 0.00 in/hr0.0 mm/hr 0.00 in0.0 mm
09:00 PM 34.8°F1.6°C 25.3°F-3.7°C 68% Calm Calm -- 30.36 in1028.1 mb 0.00 in0.0 mm 0.00 in/hr0.0 mm/hr 0.00 in0.0 mm
09:30 PM 37.2°F2.9°C 25.0°F-3.9°C 61% 1.9 mph W3.1 kmh W 2.0 mph3.2 kmh 30.36 in1028.1 mb 0.00 in0.0 mm 0.00 in/hr0.0 mm/hr 0.00 in0.0 mm
10:00 PM 43.2°F6.2°C 27.2°F-2.7°C 53% 5.8 mph W9.3 kmh W 9.0 mph14.5 kmh 30.36 in1028.1 mb 0.00 in0.0 mm 0.00 in/hr0.0 mm/hr 0.00 in0.0 mm
10:30 PM 43.7°F6.5°C 27.7°F-2.4°C 53% 7.6 mph W12.2 kmh W 12.0 mph19.3 kmh 30.38 in1028.8 mb 0.00 in0.0 mm 0.00 in/hr0.0 mm/hr 0.00 in0.0 mm
11:00 PM 43.6°F6.4°C 28.5°F-1.9°C 55% 4.1 mph WSW6.6 kmh WSW 7.0 mph11.3 kmh 30.39 in1029.1 mb 0.00 in0.0 mm 0.00 in/hr0.0 mm/hr 0.00 in0.0 mm
11:30 PM 43.8°F6.6°C 28.6°F-1.9°C 55% 7.4 mph WSW11.9 kmh WSW 8.0 mph12.9 kmh 30.38 in1028.8 mb 0.00 in0.0 mm 0.00 in/hr0.0 mm/hr 0.00 in0.0 mm